createdAt,value
2023-05-18T00:00:30.724Z,3.03
2023-05-18T00:03:25.328Z,3.20
2023-05-18T00:06:19.742Z,3.30
2023-05-18T00:09:13.917Z,3.35
2023-05-18T00:12:08.896Z,3.55
2023-05-18T00:15:03.156Z,3.75
2023-05-18T00:17:58.359Z,3.70
2023-05-18T00:20:59.858Z,3.67
2023-05-18T00:23:54.155Z,3.08
2023-05-18T00:26:50.526Z,3.17
2023-05-18T00:29:44.728Z,4.17
2023-05-18T00:32:39.038Z,3.53
2023-05-18T00:35:33.336Z,3.90
2023-05-18T00:38:27.588Z,4.40
2023-05-18T00:41:22.804Z,4.00
2023-05-18T00:44:17.114Z,4.70
2023-05-18T00:47:11.296Z,3.90
2023-05-18T00:50:05.854Z,5.25
2023-05-18T00:53:00.580Z,5.18
2023-05-18T00:55:55.002Z,5.63
2023-05-18T00:58:49.411Z,6.13
2023-05-18T01:01:47.883Z,6.03
2023-05-18T01:04:42.805Z,5.70
2023-05-18T01:07:37.047Z,4.80
2023-05-18T01:10:34.741Z,4.32
2023-05-18T01:13:49.289Z,4.88
2023-05-18T01:17:34.767Z,4.40
2023-05-18T01:20:39.053Z,3.88
2023-05-18T01:24:04.830Z,4.20
2023-05-18T01:27:02.282Z,3.90
2023-05-18T01:29:59.493Z,4.05
2023-05-18T01:35:50.411Z,4.03
2023-05-18T01:38:44.911Z,4.60
2023-05-18T01:41:43.437Z,4.53
2023-05-18T01:44:52.390Z,5.40
2023-05-18T01:47:50.235Z,5.90
2023-05-18T01:50:47.571Z,6.43
2023-05-18T01:56:41.147Z,6.80
2023-05-18T01:59:36.213Z,5.57
2023-05-18T02:02:30.961Z,6.28
2023-05-18T02:05:25.277Z,5.00
2023-05-18T02:08:19.645Z,5.10
2023-05-18T02:11:13.945Z,5.78
2023-05-18T02:14:08.237Z,5.50
2023-05-18T02:17:02.538Z,5.38
2023-05-18T02:19:57.556Z,4.32
2023-05-18T02:22:51.929Z,4.25
2023-05-18T02:25:46.175Z,4.00
2023-05-18T02:28:41.251Z,3.75
2023-05-18T02:31:37.192Z,3.08
2023-05-18T02:34:33.266Z,3.00
2023-05-18T02:37:27.614Z,2.75
2023-05-18T02:40:22.025Z,3.38
2023-05-18T02:43:16.429Z,3.90
2023-05-18T02:46:10.811Z,3.92
2023-05-18T02:49:05.053Z,3.35
2023-05-18T02:51:59.500Z,3.83
2023-05-18T02:54:56.655Z,4.15
2023-05-18T02:57:51.324Z,4.57
2023-05-18T03:00:45.625Z,3.78
2023-05-18T03:03:40.853Z,3.85
2023-05-18T03:06:37.248Z,3.38
2023-05-18T03:09:32.226Z,3.30
2023-05-18T03:12:26.462Z,2.72
2023-05-18T03:15:21.033Z,2.45
2023-05-18T03:18:15.674Z,2.00
2023-05-18T03:21:11.317Z,2.40
2023-05-18T03:24:05.758Z,1.95
2023-05-18T03:27:03.636Z,1.45
2023-05-18T03:29:58.736Z,1.13
2023-05-18T03:32:53.180Z,1.00
2023-05-18T03:35:48.674Z,1.42
2023-05-18T03:38:46.885Z,1.27
2023-05-18T03:41:41.174Z,1.48
2023-05-18T03:44:35.578Z,1.10
2023-05-18T03:47:31.041Z,1.20
2023-05-18T03:50:25.376Z,1.60
2023-05-18T03:53:20.292Z,1.52
2023-05-18T03:56:14.648Z,0.90
2023-05-18T03:59:09.389Z,1.00
2023-05-18T04:02:03.718Z,1.10
2023-05-18T04:04:59.188Z,0.95
2023-05-18T04:07:53.431Z,0.80
2023-05-18T04:10:48.047Z,0.80
2023-05-18T04:13:43.387Z,0.80
2023-05-18T04:16:37.874Z,0.73
2023-05-18T04:19:33.317Z,0.70
2023-05-18T04:22:31.009Z,0.63
2023-05-18T04:25:31.476Z,0.77
2023-05-18T04:28:25.916Z,0.85
2023-05-18T04:31:20.287Z,0.70
2023-05-18T04:34:14.801Z,0.80
2023-05-18T04:37:09.410Z,1.05
2023-05-18T04:40:09.624Z,0.70
2023-05-18T04:43:05.278Z,0.70
2023-05-18T04:45:59.925Z,0.63
2023-05-18T04:48:54.689Z,0.90
2023-05-18T04:51:49.072Z,0.73
2023-05-18T04:54:43.251Z,1.80
2023-05-18T04:57:37.480Z,0.95
2023-05-18T05:00:32.310Z,0.80
2023-05-18T05:03:26.688Z,0.70
2023-05-18T05:06:21.035Z,0.60
2023-05-18T05:09:16.030Z,0.65
2023-05-18T05:12:10.763Z,0.90
2023-05-18T05:15:05.703Z,9.90
2023-05-18T05:18:00.786Z,2.35
2023-05-18T05:20:55.923Z,0.90
2023-05-18T05:23:50.157Z,0.70
2023-05-18T05:26:44.358Z,1.25
2023-05-18T05:29:38.685Z,3.85
2023-05-18T05:32:33.010Z,16.23
2023-05-18T05:35:27.444Z,11.60
2023-05-18T05:38:21.799Z,1.85
2023-05-18T05:41:16.295Z,4.78
2023-05-18T05:44:10.573Z,5.15
2023-05-18T05:47:05.105Z,1.98
2023-05-18T05:49:59.341Z,1.02
2023-05-18T05:52:53.624Z,0.68
2023-05-18T05:55:47.903Z,0.80
2023-05-18T05:58:43.517Z,0.73
2023-05-18T06:01:37.893Z,0.70
2023-05-18T06:04:35.328Z,0.82
2023-05-18T06:07:29.665Z,0.63
2023-05-18T06:10:24.031Z,0.77
2023-05-18T06:13:18.566Z,0.80
2023-05-18T06:16:12.836Z,0.90
2023-05-18T06:19:07.263Z,1.10
2023-05-18T06:22:01.532Z,0.82
2023-05-18T06:24:55.820Z,0.88
2023-05-18T06:27:50.239Z,0.80
2023-05-18T06:30:44.963Z,0.80
2023-05-18T06:33:39.675Z,1.13
2023-05-18T06:36:34.272Z,0.82
2023-05-18T06:39:28.594Z,1.27
2023-05-18T06:42:22.955Z,0.88
2023-05-18T06:45:17.348Z,0.90
2023-05-18T06:48:14.245Z,0.70
2023-05-18T06:51:08.556Z,0.80
2023-05-18T06:54:02.856Z,0.90
2023-05-18T06:56:57.238Z,0.90
2023-05-18T06:59:54.812Z,1.20
2023-05-18T07:02:49.137Z,0.98
2023-05-18T07:05:43.418Z,1.00
2023-05-18T07:08:40.669Z,0.68
2023-05-18T07:11:34.937Z,0.80
2023-05-18T07:14:29.182Z,0.90
2023-05-18T07:17:23.740Z,0.80
2023-05-18T07:20:18.053Z,0.63
2023-05-18T07:23:12.277Z,0.98
2023-05-18T07:26:09.360Z,1.25
2023-05-18T07:29:03.622Z,1.00
2023-05-18T07:31:58.006Z,0.82
2023-05-18T07:34:52.594Z,1.00
2023-05-18T07:37:47.032Z,1.00
2023-05-18T07:40:41.378Z,0.88
2023-05-18T07:43:36.130Z,1.30
2023-05-18T07:46:30.406Z,1.20
2023-05-18T07:49:25.056Z,1.20
2023-05-18T07:52:19.299Z,1.00
2023-05-18T07:55:13.515Z,1.17
2023-05-18T07:58:08.123Z,1.60
2023-05-18T08:01:02.548Z,11.55
2023-05-18T08:03:57.031Z,9.35
2023-05-18T08:06:51.371Z,8.85
2023-05-18T08:09:46.100Z,4.35
2023-05-18T08:12:40.488Z,2.08
2023-05-18T08:15:34.786Z,2.17
2023-05-18T08:18:29.366Z,1.73
2023-05-18T08:21:23.728Z,2.55
2023-05-18T08:24:18.140Z,4.57
2023-05-18T08:27:12.523Z,6.55
2023-05-18T08:30:07.267Z,6.10
2023-05-18T08:33:01.905Z,5.95
2023-05-18T08:35:56.265Z,5.93
2023-05-18T08:38:50.538Z,5.00
2023-05-18T08:42:04.606Z,5.90
2023-05-18T08:45:14.422Z,5.70
2023-05-18T08:48:11.984Z,5.20
2023-05-18T08:51:08.288Z,5.03
2023-05-18T08:54:03.754Z,5.13
2023-05-18T08:56:59.098Z,5.00
2023-05-18T08:59:55.154Z,4.20
2023-05-18T09:02:50.503Z,3.45
2023-05-18T09:05:44.965Z,6.10
2023-05-18T09:08:40.176Z,5.18
2023-05-18T09:11:37.371Z,4.20
2023-05-18T09:14:33.373Z,3.95
2023-05-18T09:17:27.657Z,4.70
2023-05-18T09:20:22.632Z,5.18
2023-05-18T09:23:21.090Z,5.15
2023-05-18T09:26:15.290Z,4.75
2023-05-18T09:29:25.483Z,4.10
2023-05-18T09:32:19.741Z,4.70
2023-05-18T09:35:14.265Z,4.60
2023-05-18T09:38:09.390Z,4.53
2023-05-18T09:41:03.686Z,5.13
2023-05-18T09:43:57.955Z,4.30
2023-05-18T09:46:58.340Z,4.88
2023-05-18T09:49:52.630Z,6.03
2023-05-18T09:52:48.469Z,6.53
2023-05-18T09:55:51.383Z,9.43
2023-05-18T09:58:46.948Z,9.48
2023-05-18T10:02:06.989Z,8.90
2023-05-18T10:05:01.245Z,9.70
2023-05-18T10:07:56.775Z,8.70
2023-05-18T10:10:52.649Z,6.22
2023-05-18T10:13:48.075Z,6.15
2023-05-18T10:16:43.939Z,5.50
2023-05-18T10:19:43.066Z,5.75
2023-05-18T10:22:38.512Z,5.07
2023-05-18T10:25:34.321Z,5.25
2023-05-18T10:28:50.328Z,5.20
2023-05-18T10:31:46.932Z,8.07
2023-05-18T10:34:44.710Z,8.75
2023-05-18T10:37:42.500Z,8.07
2023-05-18T10:40:37.783Z,7.78
2023-05-18T10:43:32.253Z,8.73
2023-05-18T10:46:27.967Z,8.88
2023-05-18T10:49:26.480Z,7.15
2023-05-18T10:52:21.511Z,6.32
2023-05-18T10:55:16.633Z,6.95
2023-05-18T10:58:15.566Z,9.18
2023-05-18T11:01:12.333Z,11.52
2023-05-18T11:04:07.824Z,12.18
2023-05-18T11:07:03.525Z,12.98
2023-05-18T11:09:57.821Z,12.20
2023-05-18T11:12:52.097Z,10.25
2023-05-18T11:16:00.133Z,9.48
2023-05-18T11:18:55.412Z,8.55
2023-05-18T11:21:50.368Z,7.63
2023-05-18T11:24:44.688Z,7.90
2023-05-18T11:27:39.562Z,8.95
2023-05-18T11:30:49.505Z,9.50
2023-05-18T11:33:44.279Z,9.52
2023-05-18T11:36:47.625Z,10.18
2023-05-18T11:39:55.460Z,9.55
2023-05-18T11:43:00.737Z,9.40
2023-05-18T11:45:59.961Z,8.55
2023-05-18T11:48:57.561Z,9.02
2023-05-18T11:52:09.761Z,9.00
2023-05-18T11:55:03.960Z,8.73
2023-05-18T11:57:58.380Z,7.60
2023-05-18T12:00:53.115Z,8.70
2023-05-18T12:03:48.692Z,7.78
2023-05-18T12:06:43.298Z,7.68
2023-05-18T12:09:38.111Z,7.75
2023-05-18T12:12:32.916Z,7.25
2023-05-18T12:15:30.036Z,6.57
2023-05-18T12:18:24.191Z,5.13
2023-05-18T12:21:23.933Z,5.50
2023-05-18T12:24:18.180Z,5.80
2023-05-18T12:27:14.369Z,5.15
2023-05-18T12:30:13.420Z,4.65
2023-05-18T12:33:08.479Z,5.10
2023-05-18T12:36:02.670Z,5.53
2023-05-18T12:38:57.279Z,5.68
2023-05-18T12:41:51.640Z,6.00
2023-05-18T12:44:47.664Z,5.13
2023-05-18T12:47:44.326Z,6.65
2023-05-18T12:50:40.045Z,6.55
2023-05-18T12:53:46.918Z,6.25
2023-05-18T12:57:02.352Z,6.23
2023-05-18T12:59:57.108Z,6.82
2023-05-18T13:02:51.439Z,6.28
2023-05-18T13:05:47.097Z,6.30
2023-05-18T13:08:41.364Z,6.10
2023-05-18T13:11:36.335Z,5.57
2023-05-18T13:14:32.638Z,6.45
2023-05-18T13:17:26.840Z,5.50
2023-05-18T13:20:21.304Z,5.07
2023-05-18T13:23:18.451Z,5.05
2023-05-18T13:26:12.732Z,4.53
2023-05-18T13:29:08.495Z,4.70
2023-05-18T13:32:02.813Z,4.75
2023-05-18T13:34:57.211Z,4.18
2023-05-18T13:37:52.134Z,4.65
2023-05-18T13:40:47.856Z,5.15
2023-05-18T13:43:43.608Z,5.13
2023-05-18T13:46:38.875Z,5.30
2023-05-18T13:49:33.131Z,5.10
2023-05-18T13:52:27.675Z,5.72
2023-05-18T13:55:22.203Z,5.20
2023-05-18T13:58:16.434Z,6.05
2023-05-18T14:01:13.594Z,6.07
2023-05-18T14:04:08.252Z,5.00
2023-05-18T14:07:02.415Z,5.43
2023-05-18T14:09:56.579Z,5.90
2023-05-18T14:12:51.187Z,5.72
2023-05-18T14:15:45.402Z,5.53
2023-05-18T14:18:39.686Z,5.72
2023-05-18T14:21:33.930Z,5.75
2023-05-18T14:24:28.173Z,6.03
2023-05-18T14:27:24.471Z,5.40
2023-05-18T14:30:18.722Z,5.50
2023-05-18T14:33:13.117Z,5.30
2023-05-18T14:36:07.508Z,5.05
2023-05-18T14:39:01.769Z,5.00
2023-05-18T14:41:55.963Z,4.10
2023-05-18T14:44:50.204Z,3.95
2023-05-18T14:47:44.480Z,4.13
2023-05-18T14:50:39.299Z,4.70
2023-05-18T14:53:33.858Z,4.10
2023-05-18T14:56:28.217Z,4.28
2023-05-18T14:59:22.708Z,4.18
2023-05-18T15:02:17.518Z,3.88
2023-05-18T15:05:12.570Z,3.70
2023-05-18T15:08:07.092Z,3.95
2023-05-18T15:11:01.621Z,3.80
2023-05-18T15:13:55.812Z,3.35
2023-05-18T15:16:50.289Z,3.10
2023-05-18T15:19:44.592Z,3.40
2023-05-18T15:22:39.846Z,4.10
2023-05-18T15:25:34.101Z,4.18
2023-05-18T15:28:28.316Z,3.50
2023-05-18T15:31:22.542Z,3.17
2023-05-18T15:34:16.786Z,3.08
2023-05-18T15:37:10.923Z,3.17
2023-05-18T15:40:05.581Z,3.38
2023-05-18T15:43:00.055Z,2.97
2023-05-18T15:45:54.367Z,3.20
2023-05-18T15:48:48.583Z,3.25
2023-05-18T15:51:42.778Z,2.80
2023-05-18T15:54:37.482Z,2.30
2023-05-18T15:57:31.924Z,2.70
2023-05-18T16:00:27.488Z,2.33
2023-05-18T16:03:21.869Z,2.28
2023-05-18T16:06:16.309Z,2.17
2023-05-18T16:09:10.626Z,2.35
2023-05-18T16:12:04.932Z,2.30
2023-05-18T16:14:59.154Z,2.30
2023-05-18T16:17:53.337Z,1.88
2023-05-18T16:20:47.762Z,2.03
2023-05-18T16:23:42.797Z,2.05
2023-05-18T16:26:39.745Z,1.80
2023-05-18T16:32:29.179Z,1.95
2023-05-18T16:35:24.771Z,1.60
2023-05-18T16:38:19.229Z,1.77
2023-05-18T16:41:13.983Z,1.75
2023-05-18T16:44:08.357Z,1.80
2023-05-18T16:47:02.623Z,1.70
2023-05-18T16:49:57.087Z,2.00
2023-05-18T16:52:51.265Z,2.15
2023-05-18T16:55:45.841Z,2.00
2023-05-18T16:58:40.073Z,1.88
2023-05-18T17:01:34.655Z,1.90
2023-05-18T17:04:28.883Z,1.67
2023-05-18T17:07:23.778Z,1.90
2023-05-18T17:10:18.086Z,1.80
2023-05-18T17:13:13.056Z,1.98
2023-05-18T17:16:07.792Z,1.83
2023-05-18T17:19:02.123Z,1.70
2023-05-18T17:21:56.554Z,1.70
2023-05-18T17:24:51.012Z,2.08
2023-05-18T17:27:45.584Z,1.60
2023-05-18T17:30:40.010Z,2.25
2023-05-18T17:33:34.279Z,2.03
2023-05-18T17:36:31.575Z,1.60
2023-05-18T17:42:19.668Z,2.00
2023-05-18T17:45:13.918Z,1.73
2023-05-18T17:48:08.765Z,1.70
2023-05-18T17:51:04.041Z,1.83
2023-05-18T17:53:58.860Z,1.65
2023-05-18T17:56:53.176Z,1.75
2023-05-18T17:59:47.662Z,1.60
2023-05-18T18:02:42.635Z,1.95
2023-05-18T18:05:37.835Z,1.65
2023-05-18T18:08:32.178Z,1.60
2023-05-18T18:11:29.614Z,1.48
2023-05-18T18:14:23.842Z,1.75
2023-05-18T18:17:18.029Z,1.60
2023-05-18T18:20:13.265Z,1.80
2023-05-18T18:23:08.840Z,1.70
2023-05-18T18:26:03.488Z,1.38
2023-05-18T18:28:57.686Z,1.40
2023-05-18T18:31:52.104Z,1.98
2023-05-18T18:34:46.298Z,2.10
2023-05-18T18:37:40.547Z,1.65
2023-05-18T18:40:37.855Z,1.60
2023-05-18T18:43:32.254Z,1.80
2023-05-18T18:46:26.892Z,2.00
2023-05-18T18:49:21.173Z,1.60
2023-05-18T18:52:15.454Z,1.67
2023-05-18T18:55:09.872Z,1.70
2023-05-18T18:58:04.114Z,1.80
2023-05-18T19:00:58.402Z,1.80
2023-05-18T19:03:54.252Z,1.83
2023-05-18T19:06:48.591Z,2.10
2023-05-18T19:09:43.015Z,1.98
2023-05-18T19:12:37.269Z,2.10
2023-05-18T19:15:31.731Z,1.98
2023-05-18T19:18:26.181Z,2.40
2023-05-18T19:21:20.840Z,2.13
2023-05-18T19:24:15.158Z,2.55
2023-05-18T19:27:09.616Z,2.58
2023-05-18T19:30:06.461Z,2.92
2023-05-18T19:33:00.879Z,2.08
2023-05-18T19:35:55.970Z,2.13
2023-05-18T19:38:53.820Z,1.95
2023-05-18T19:41:48.064Z,2.40
2023-05-18T19:44:42.488Z,2.10
2023-05-18T19:47:37.542Z,2.30
2023-05-18T19:50:31.816Z,2.40
2023-05-18T19:53:26.533Z,2.10
2023-05-18T19:56:20.807Z,2.25
2023-05-18T19:59:17.198Z,2.00
2023-05-18T20:02:11.513Z,2.10
2023-05-18T20:05:08.142Z,1.90
2023-05-18T20:08:04.168Z,1.92
2023-05-18T20:10:58.465Z,1.55
2023-05-18T20:13:52.823Z,1.92
2023-05-18T20:16:47.204Z,2.00
2023-05-18T20:19:42.063Z,2.42
2023-05-18T20:22:36.320Z,1.50
2023-05-18T20:25:36.229Z,2.00
2023-05-18T20:28:32.705Z,2.08
2023-05-18T20:31:27.147Z,1.90
2023-05-18T20:34:21.362Z,2.33
2023-05-18T20:37:15.629Z,1.67
2023-05-18T20:40:10.936Z,1.67
2023-05-18T20:43:06.525Z,1.75
2023-05-18T20:46:01.411Z,1.95
2023-05-18T20:48:56.203Z,1.70
2023-05-18T20:51:53.582Z,1.85
2023-05-18T20:54:48.068Z,1.50
2023-05-18T20:57:43.405Z,1.50
2023-05-18T21:00:38.475Z,2.10
2023-05-18T21:03:32.728Z,1.63
2023-05-18T21:06:27.521Z,1.77
2023-05-18T21:09:21.864Z,1.50
2023-05-18T21:12:16.481Z,1.60
2023-05-18T21:15:11.059Z,1.83
2023-05-18T21:18:05.862Z,1.90
2023-05-18T21:21:00.246Z,2.05
2023-05-18T21:23:54.515Z,2.03
2023-05-18T21:26:48.862Z,1.75
2023-05-18T21:29:43.288Z,2.00
2023-05-18T21:32:37.771Z,1.70
2023-05-18T21:35:32.208Z,2.22
2023-05-18T21:38:26.610Z,1.92
2023-05-18T21:41:20.877Z,2.30
2023-05-18T21:44:15.179Z,1.85
2023-05-18T21:47:09.641Z,2.22
2023-05-18T21:50:05.325Z,1.98
2023-05-18T21:52:59.632Z,1.80
2023-05-18T21:55:53.959Z,2.10
2023-05-18T21:58:48.209Z,1.80
2023-05-18T22:01:42.596Z,2.28
2023-05-18T22:04:36.929Z,2.97
2023-05-18T22:07:31.158Z,2.85
2023-05-18T22:10:25.446Z,2.30
2023-05-18T22:13:19.616Z,2.30
2023-05-18T22:16:13.872Z,2.10
2023-05-18T22:19:08.170Z,2.78
2023-05-18T22:22:02.722Z,1.95
2023-05-18T22:24:57.126Z,2.30
2023-05-18T22:27:51.401Z,2.00
2023-05-18T22:30:45.828Z,1.77
2023-05-18T22:33:40.015Z,2.90
2023-05-18T22:36:36.299Z,2.03
2023-05-18T22:39:30.496Z,2.25
2023-05-18T22:42:24.779Z,2.72
2023-05-18T22:45:19.061Z,2.25
2023-05-18T22:48:13.351Z,2.63
2023-05-18T22:51:07.718Z,2.47
2023-05-18T22:54:02.307Z,2.65
2023-05-18T22:56:56.589Z,2.15
2023-05-18T22:59:50.889Z,2.17
2023-05-18T23:02:45.176Z,2.30
2023-05-18T23:05:42.155Z,2.90
2023-05-18T23:08:39.255Z,2.47
2023-05-18T23:11:36.130Z,2.90
2023-05-18T23:14:32.533Z,2.60
2023-05-18T23:17:27.723Z,2.40
2023-05-18T23:20:23.847Z,2.45
2023-05-18T23:23:18.131Z,2.80
2023-05-18T23:26:12.404Z,2.63
2023-05-18T23:29:07.032Z,2.90
2023-05-18T23:32:01.309Z,3.10
2023-05-18T23:34:57.433Z,3.10
2023-05-18T23:37:53.064Z,2.90
2023-05-18T23:40:48.724Z,3.45
2023-05-18T23:43:43.407Z,4.05
2023-05-18T23:46:38.114Z,3.25
2023-05-18T23:49:32.770Z,3.83
2023-05-18T23:52:31.485Z,4.10
2023-05-18T23:55:26.384Z,4.30
2023-05-18T23:58:20.910Z,3.95
